sensor_id;sensor_type;location;lat;lon;timestamp;pressure;altitude;pressure_sealevel;temperature
73734;BMP280;62039;50.000;9.064;2023-07-28T00:01:15;99505.09;;;18.18
73734;BMP280;62039;50.000;9.064;2023-07-28T00:03:42;99511.19;;;18.18
73734;BMP280;62039;50.000;9.064;2023-07-28T00:06:09;99503.25;;;18.18
73734;BMP280;62039;50.000;9.064;2023-07-28T00:08:36;99499.56;;;18.19
73734;BMP280;62039;50.000;9.064;2023-07-28T00:11:03;99496.13;;;18.19
73734;BMP280;62039;50.000;9.064;2023-07-28T00:13:32;99491.66;;;18.19
73734;BMP280;62039;50.000;9.064;2023-07-28T00:15:59;99491.66;;;18.19
73734;BMP280;62039;50.000;9.064;2023-07-28T00:18:26;99490.59;;;18.20
73734;BMP280;62039;50.000;9.064;2023-07-28T00:20:53;99494.03;;;18.21
73734;BMP280;62039;50.000;9.064;2023-07-28T00:23:20;99487.94;;;18.20
73734;BMP280;62039;50.000;9.064;2023-07-28T00:25:47;99486.91;;;18.21
73734;BMP280;62039;50.000;9.064;2023-07-28T00:28:14;99485.09;;;18.22
73734;BMP280;62039;50.000;9.064;2023-07-28T00:30:43;99480.59;;;18.22
73734;BMP280;62039;50.000;9.064;2023-07-28T00:33:10;99473.47;;;18.23
73734;BMP280;62039;50.000;9.064;2023-07-28T00:35:37;99480.59;;;18.22
73734;BMP280;62039;50.000;9.064;2023-07-28T00:38:04;99476.94;;;18.23
73734;BMP280;62039;50.000;9.064;2023-07-28T00:40:31;99484.28;;;18.21
73734;BMP280;62039;50.000;9.064;2023-07-28T00:42:58;99479.00;;;18.21
73734;BMP280;62039;50.000;9.064;2023-07-28T00:45:25;99468.41;;;18.21
73734;BMP280;62039;50.000;9.064;2023-07-28T00:47:55;99477.38;;;18.20
73734;BMP280;62039;50.000;9.064;2023-07-28T00:50:22;99479.25;;;18.20
73734;BMP280;62039;50.000;9.064;2023-07-28T00:52:49;99478.19;;;18.21
73734;BMP280;62039;50.000;9.064;2023-07-28T00:55:16;99468.09;;;18.18
73734;BMP280;62039;50.000;9.064;2023-07-28T00:57:43;99477.63;;;18.19
73734;BMP280;62039;50.000;9.064;2023-07-28T01:00:12;99473.38;;;18.18
73734;BMP280;62039;50.000;9.064;2023-07-28T01:02:39;99478.66;;;18.18
73734;BMP280;62039;50.000;9.064;2023-07-28T01:05:09;99484.75;;;18.18
73734;BMP280;62039;50.000;9.064;2023-07-28T01:07:41;99484.75;;;18.18
73734;BMP280;62039;50.000;9.064;2023-07-28T01:10:13;99477.84;;;18.17
73734;BMP280;62039;50.000;9.064;2023-07-28T01:12:41;99474.41;;;18.17
73734;BMP280;62039;50.000;9.064;2023-07-28T01:15:09;99467.28;;;18.17
73734;BMP280;62039;50.000;9.064;2023-07-28T01:17:36;99463.84;;;18.17
73734;BMP280;62039;50.000;9.064;2023-07-28T01:20:04;99467.28;;;18.17
73734;BMP280;62039;50.000;9.064;2023-07-28T01:22:47;99470.16;;;18.16
73734;BMP280;62039;50.000;9.064;2023-07-28T01:25:20;99469.34;;;18.15
73734;BMP280;62039;50.000;9.064;2023-07-28T01:27:51;99464.84;;;18.16
73734;BMP280;62039;50.000;9.064;2023-07-28T01:30:19;99474.63;;;18.15
73734;BMP280;62039;50.000;9.064;2023-07-28T01:32:47;99466.69;;;18.15
73734;BMP280;62039;50.000;9.064;2023-07-28T01:35:14;99460.59;;;18.15
73734;BMP280;62039;50.000;9.064;2023-07-28T01:37:41;99452.91;;;18.13
73734;BMP280;62039;50.000;9.064;2023-07-28T01:40:08;99463.25;;;18.15
73734;BMP280;62039;50.000;9.064;2023-07-28T01:42:35;99463.25;;;18.15
73734;BMP280;62039;50.000;9.064;2023-07-28T01:45:06;99453.47;;;18.15
73734;BMP280;62039;50.000;9.064;2023-07-28T01:47:33;99443.94;;;18.14
73734;BMP280;62039;50.000;9.064;2023-07-28T01:50:00;99455.53;;;18.13
73734;BMP280;62039;50.000;9.064;2023-07-28T01:52:27;99453.97;;;18.12
73734;BMP280;62039;50.000;9.064;2023-07-28T01:54:54;99452.34;;;18.11
73734;BMP280;62039;50.000;9.064;2023-07-28T01:57:21;99450.75;;;18.10
73734;BMP280;62039;50.000;9.064;2023-07-28T01:59:48;99450.75;;;18.10
73734;BMP280;62039;50.000;9.064;2023-07-28T02:02:18;99439.38;;;18.10
73734;BMP280;62039;50.000;9.064;2023-07-28T02:04:45;99447.50;;;18.08
73734;BMP280;62039;50.000;9.064;2023-07-28T02:07:12;99449.59;;;18.06
73734;BMP280;62039;50.000;9.064;2023-07-28T02:09:39;99448.00;;;18.05
73734;BMP280;62039;50.000;9.064;2023-07-28T02:12:06;99448.78;;;18.06
73734;BMP280;62039;50.000;9.064;2023-07-28T02:14:33;99446.97;;;18.06
73734;BMP280;62039;50.000;9.064;2023-07-28T02:17:00;99448.78;;;18.06
73734;BMP280;62039;50.000;9.064;2023-07-28T02:19:30;99448.78;;;18.06
73734;BMP280;62039;50.000;9.064;2023-07-28T02:21:57;99453.28;;;18.05
73734;BMP280;62039;50.000;9.064;2023-07-28T02:24:24;99448.78;;;18.06
73734;BMP280;62039;50.000;9.064;2023-07-28T02:26:51;99446.38;;;18.04
73734;BMP280;62039;50.000;9.064;2023-07-28T02:29:18;99457.53;;;18.06
73734;BMP280;62039;50.000;9.064;2023-07-28T02:31:45;99452.25;;;18.06
73734;BMP280;62039;50.000;9.064;2023-07-28T02:34:12;99454.09;;;18.06
73734;BMP280;62039;50.000;9.064;2023-07-28T02:36:41;99454.09;;;18.06
73734;BMP280;62039;50.000;9.064;2023-07-28T02:39:08;99457.75;;;18.04
73734;BMP280;62039;50.000;9.064;2023-07-28T02:41:35;99458.78;;;18.03
73734;BMP280;62039;50.000;9.064;2023-07-28T02:44:03;99464.88;;;18.04
73734;BMP280;62039;50.000;9.064;2023-07-28T02:46:30;99466.72;;;18.03
73734;BMP280;62039;50.000;9.064;2023-07-28T02:48:58;99463.47;;;18.01
73734;BMP280;62039;50.000;9.064;2023-07-28T02:51:25;99468.53;;;18.03
73734;BMP280;62039;50.000;9.064;2023-07-28T02:53:54;99465.91;;;18.03
73734;BMP280;62039;50.000;9.064;2023-07-28T02:56:21;99468.75;;;18.01
73734;BMP280;62039;50.000;9.064;2023-07-28T02:58:48;99465.31;;;18.01
73734;BMP280;62039;50.000;9.064;2023-07-28T03:01:15;99469.56;;;18.02
73734;BMP280;62039;50.000;9.064;2023-07-28T03:03:42;99469.56;;;18.02
73734;BMP280;62039;50.000;9.064;2023-07-28T03:06:10;99474.03;;;18.01
73734;BMP280;62039;50.000;9.064;2023-07-28T03:08:36;99465.31;;;18.01
73734;BMP280;62039;50.000;9.064;2023-07-28T03:11:06;99466.13;;;18.01
73734;BMP280;62039;50.000;9.064;2023-07-28T03:13:33;99468.97;;;18.00
73734;BMP280;62039;50.000;9.064;2023-07-28T03:16:00;99477.72;;;18.00
73734;BMP280;62039;50.000;9.064;2023-07-28T03:18:27;99479.00;;;17.98
73734;BMP280;62039;50.000;9.064;2023-07-28T03:20:54;99458.91;;;17.97
73734;BMP280;62039;50.000;9.064;2023-07-28T03:23:21;99459.69;;;17.97
73734;BMP280;62039;50.000;9.064;2023-07-28T03:25:48;99464.19;;;17.97
73734;BMP280;62039;50.000;9.064;2023-07-28T03:28:17;99463.94;;;17.98
73734;BMP280;62039;50.000;9.064;2023-07-28T03:30:44;99468.44;;;17.98
73734;BMP280;62039;50.000;9.064;2023-07-28T03:33:11;99463.94;;;17.98
73734;BMP280;62039;50.000;9.064;2023-07-28T03:35:38;99470.03;;;17.99
73734;BMP280;62039;50.000;9.064;2023-07-28T03:38:05;99475.34;;;17.99
73734;BMP280;62039;50.000;9.064;2023-07-28T03:40:32;99472.69;;;17.99
73734;BMP280;62039;50.000;9.064;2023-07-28T03:42:59;99470.03;;;17.99
73734;BMP280;62039;50.000;9.064;2023-07-28T03:45:29;99470.84;;;17.99
73734;BMP280;62039;50.000;9.064;2023-07-28T03:47:56;99470.03;;;17.99
73734;BMP280;62039;50.000;9.064;2023-07-28T03:50:23;99470.84;;;17.99
73734;BMP280;62039;50.000;9.064;2023-07-28T03:52:50;99474.53;;;17.98
73734;BMP280;62039;50.000;9.064;2023-07-28T03:55:17;99470.03;;;17.99
73734;BMP280;62039;50.000;9.064;2023-07-28T03:57:44;99470.84;;;17.99
73734;BMP280;62039;50.000;9.064;2023-07-28T04:00:12;99468.97;;;18.00
73734;BMP280;62039;50.000;9.064;2023-07-28T04:02:42;99461.06;;;18.00
73734;BMP280;62039;50.000;9.064;2023-07-28T04:05:09;99468.97;;;18.00
73734;BMP280;62039;50.000;9.064;2023-07-28T04:07:36;99460.28;;;17.99
73734;BMP280;62039;50.000;9.064;2023-07-28T04:10:04;99472.44;;;18.00
73734;BMP280;62039;50.000;9.064;2023-07-28T04:12:31;99474.03;;;18.01
73734;BMP280;62039;50.000;9.064;2023-07-28T04:14:58;99473.25;;;18.01
73734;BMP280;62039;50.000;9.064;2023-07-28T04:17:25;99469.56;;;18.02
73734;BMP280;62039;50.000;9.064;2023-07-28T04:19:55;99472.78;;;18.04
73734;BMP280;62039;50.000;9.064;2023-07-28T04:22:22;99473.81;;;18.03
73734;BMP280;62039;50.000;9.064;2023-07-28T04:24:49;99473.59;;;18.04
73734;BMP280;62039;50.000;9.064;2023-07-28T04:27:16;99472.78;;;18.04
73734;BMP280;62039;50.000;9.064;2023-07-28T04:29:43;99471.75;;;18.05
73734;BMP280;62039;50.000;9.064;2023-07-28T04:32:10;99474.41;;;18.05
73734;BMP280;62039;50.000;9.064;2023-07-28T04:34:37;99479.69;;;18.05
73734;BMP280;62039;50.000;9.064;2023-07-28T04:37:07;99479.69;;;18.05
73734;BMP280;62039;50.000;9.064;2023-07-28T04:39:34;99484.97;;;18.05
73734;BMP280;62039;50.000;9.064;2023-07-28T04:42:01;99475.22;;;18.06
73734;BMP280;62039;50.000;9.064;2023-07-28T04:44:28;99492.66;;;18.07
73734;BMP280;62039;50.000;9.064;2023-07-28T04:46:55;99492.66;;;18.07
73734;BMP280;62039;50.000;9.064;2023-07-28T04:49:22;99488.97;;;18.08
73734;BMP280;62039;50.000;9.064;2023-07-28T04:51:49;99496.91;;;18.08
73734;BMP280;62039;50.000;9.064;2023-07-28T04:54:19;99501.97;;;18.09
73734;BMP280;62039;50.000;9.064;2023-07-28T04:56:48;99508.06;;;18.10
73734;BMP280;62039;50.000;9.064;2023-07-28T04:59:15;99499.09;;;18.11
73734;BMP280;62039;50.000;9.064;2023-07-28T05:01:42;99499.91;;;18.11
73734;BMP280;62039;50.000;9.064;2023-07-28T05:04:09;99510.25;;;18.13
73734;BMP280;62039;50.000;9.064;2023-07-28T05:06:36;99512.66;;;18.14
73734;BMP280;62039;50.000;9.064;2023-07-28T05:09:03;99502.09;;;18.14
73734;BMP280;62039;50.000;9.064;2023-07-28T05:11:33;99507.16;;;18.16
73734;BMP280;62039;50.000;9.064;2023-07-28T05:14:01;99507.16;;;18.16
73734;BMP280;62039;50.000;9.064;2023-07-28T05:16:28;99511.41;;;18.17
73734;BMP280;62039;50.000;9.064;2023-07-28T05:18:55;99517.50;;;18.17
73734;BMP280;62039;50.000;9.064;2023-07-28T05:21:22;99507.50;;;18.19
73734;BMP280;62039;50.000;9.064;2023-07-28T05:23:49;99513.59;;;18.20
73734;BMP280;62039;50.000;9.064;2023-07-28T05:26:16;99517.81;;;18.21
73734;BMP280;62039;50.000;9.064;2023-07-28T05:28:45;99527.38;;;18.22
73734;BMP280;62039;50.000;9.064;2023-07-28T05:31:12;99521.28;;;18.21
73734;BMP280;62039;50.000;9.064;2023-07-28T05:33:39;99525.31;;;18.24
73734;BMP280;62039;50.000;9.064;2023-07-28T05:36:06;99520.03;;;18.24
73734;BMP280;62039;50.000;9.064;2023-07-28T05:38:33;99526.16;;;18.24
73734;BMP280;62039;50.000;9.064;2023-07-28T05:41:01;99524.88;;;18.27
73734;BMP280;62039;50.000;9.064;2023-07-28T05:43:28;99532.03;;;18.26
73734;BMP280;62039;50.000;9.064;2023-07-28T05:45:59;99533.38;;;18.29
73734;BMP280;62039;50.000;9.064;2023-07-28T05:48:27;99533.38;;;18.29
73734;BMP280;62039;50.000;9.064;2023-07-28T05:50:54;99535.81;;;18.30
73734;BMP280;62039;50.000;9.064;2023-07-28T05:53:21;99537.41;;;18.31
73734;BMP280;62039;50.000;9.064;2023-07-28T05:55:48;99533.75;;;18.32
73734;BMP280;62039;50.000;9.064;2023-07-28T05:58:15;99537.97;;;18.33
73734;BMP280;62039;50.000;9.064;2023-07-28T06:00:42;99535.09;;;18.35
73734;BMP280;62039;50.000;9.064;2023-07-28T06:03:12;99548.69;;;18.38
73734;BMP280;62039;50.000;9.064;2023-07-28T06:05:39;99541.56;;;18.39
73734;BMP280;62039;50.000;9.064;2023-07-28T06:08:06;99541.31;;;18.40
73734;BMP280;62039;50.000;9.064;2023-07-28T06:10:34;99548.19;;;18.41
73734;BMP280;62039;50.000;9.064;2023-07-28T06:13:01;99547.16;;;18.42
73734;BMP280;62039;50.000;9.064;2023-07-28T06:15:28;99545.34;;;18.43
73734;BMP280;62039;50.000;9.064;2023-07-28T06:17:55;99552.00;;;18.46
73734;BMP280;62039;50.000;9.064;2023-07-28T06:20:24;99546.25;;;18.49
73734;BMP280;62039;50.000;9.064;2023-07-28T06:22:51;99554.19;;;18.49
73734;BMP280;62039;50.000;9.064;2023-07-28T06:25:18;99554.19;;;18.49
73734;BMP280;62039;50.000;9.064;2023-07-28T06:27:45;99557.06;;;18.47
73734;BMP280;62039;50.000;9.064;2023-07-28T06:30:12;99544.09;;;18.46
73734;BMP280;62039;50.000;9.064;2023-07-28T06:32:39;99557.53;;;18.44
73734;BMP280;62039;50.000;9.064;2023-07-28T06:35:07;99551.44;;;18.43
73734;BMP280;62039;50.000;9.064;2023-07-28T06:37:36;99555.91;;;18.43
73734;BMP280;62039;50.000;9.064;2023-07-28T06:40:05;99558.34;;;18.45
73734;BMP280;62039;50.000;9.064;2023-07-28T06:42:33;99554.66;;;18.46
73734;BMP280;62039;50.000;9.064;2023-07-28T06:44:59;99557.84;;;18.48
73734;BMP280;62039;50.000;9.064;2023-07-28T06:47:26;99562.69;;;18.51
73734;BMP280;62039;50.000;9.064;2023-07-28T06:49:53;99567.75;;;18.52
73734;BMP280;62039;50.000;9.064;2023-07-28T06:52:21;99572.34;;;18.57
73734;BMP280;62039;50.000;9.064;2023-07-28T06:54:50;99571.91;;;18.60
73734;BMP280;62039;50.000;9.064;2023-07-28T06:57:17;99581.41;;;18.61
73734;BMP280;62039;50.000;9.064;2023-07-28T06:59:44;99582.00;;;18.63
73734;BMP280;62039;50.000;9.064;2023-07-28T07:02:11;99581.56;;;18.66
73734;BMP280;62039;50.000;9.064;2023-07-28T07:04:38;99582.69;;;18.70
73734;BMP280;62039;50.000;9.064;2023-07-28T07:07:07;99592.81;;;18.73
73734;BMP280;62039;50.000;9.064;2023-07-28T07:09:34;99596.81;;;18.75
73734;BMP280;62039;50.000;9.064;2023-07-28T07:12:05;99588.44;;;18.78
73734;BMP280;62039;50.000;9.064;2023-07-28T07:14:32;99587.41;;;18.79
73734;BMP280;62039;50.000;9.064;2023-07-28T07:16:59;99591.41;;;18.82
73734;BMP280;62039;50.000;9.064;2023-07-28T07:19:27;99593.59;;;18.85
73734;BMP280;62039;50.000;9.064;2023-07-28T07:21:54;99594.19;;;18.87
73734;BMP280;62039;50.000;9.064;2023-07-28T07:24:21;99598.69;;;18.87
73734;BMP280;62039;50.000;9.064;2023-07-28T07:26:48;99597.19;;;18.91
73734;BMP280;62039;50.000;9.064;2023-07-28T07:29:18;99595.94;;;18.93
73734;BMP280;62039;50.000;9.064;2023-07-28T07:31:45;99600.97;;;18.95
73734;BMP280;62039;50.000;9.064;2023-07-28T07:34:12;99596.84;;;18.99
73734;BMP280;62039;50.000;9.064;2023-07-28T07:36:39;99598.78;;;19.03
73734;BMP280;62039;50.000;9.064;2023-07-28T07:39:06;99602.81;;;19.06
73734;BMP280;62039;50.000;9.064;2023-07-28T07:41:33;99599.94;;;19.07
73734;BMP280;62039;50.000;9.064;2023-07-28T07:44:00;99606.59;;;19.10
73734;BMP280;62039;50.000;9.064;2023-07-28T07:46:30;99603.50;;;19.13
73734;BMP280;62039;50.000;9.064;2023-07-28T07:48:57;99603.81;;;19.16
73734;BMP280;62039;50.000;9.064;2023-07-28T07:51:24;99610.28;;;19.20
73734;BMP280;62039;50.000;9.064;2023-07-28T07:53:51;99607.72;;;19.26
73734;BMP280;62039;50.000;9.064;2023-07-28T07:56:18;99615.97;;;19.29
73734;BMP280;62039;50.000;9.064;2023-07-28T07:58:45;99616.09;;;19.34
73734;BMP280;62039;50.000;9.064;2023-07-28T08:01:12;99612.66;;;19.34
73734;BMP280;62039;50.000;9.064;2023-07-28T08:03:42;99616.44;;;19.38
73734;BMP280;62039;50.000;9.064;2023-07-28T08:06:09;99609.88;;;19.40
73734;BMP280;62039;50.000;9.064;2023-07-28T08:08:39;99616.28;;;19.44
73734;BMP280;62039;50.000;9.064;2023-07-28T08:11:09;99612.94;;;19.49
73734;BMP280;62039;50.000;9.064;2023-07-28T08:13:37;99616.53;;;19.54
73734;BMP280;62039;50.000;9.064;2023-07-28T08:16:04;99622.97;;;19.58
73734;BMP280;62039;50.000;9.064;2023-07-28T08:18:31;99620.63;;;19.62
73734;BMP280;62039;50.000;9.064;2023-07-28T08:21:02;99618.91;;;19.68
73734;BMP280;62039;50.000;9.064;2023-07-28T08:23:29;99625.31;;;19.72
73734;BMP280;62039;50.000;9.064;2023-07-28T08:25:55;99631.50;;;19.77
73734;BMP280;62039;50.000;9.064;2023-07-28T08:28:23;99627.91;;;19.83
73734;BMP280;62039;50.000;9.064;2023-07-28T08:30:54;99628.50;;;19.85
73734;BMP280;62039;50.000;9.064;2023-07-28T08:33:21;99624.81;;;19.86
73734;BMP280;62039;50.000;9.064;2023-07-28T08:35:48;99624.31;;;19.89
73734;BMP280;62039;50.000;9.064;2023-07-28T08:38:18;99627.06;;;19.94
73734;BMP280;62039;50.000;9.064;2023-07-28T08:40:45;99628.66;;;19.95
73734;BMP280;62039;50.000;9.064;2023-07-28T08:43:12;99634.31;;;19.99
73734;BMP280;62039;50.000;9.064;2023-07-28T08:45:39;99614.72;;;20.00
73734;BMP280;62039;50.000;9.064;2023-07-28T08:48:06;99624.00;;;20.03
73734;BMP280;62039;50.000;9.064;2023-07-28T08:50:33;99614.78;;;20.05
73734;BMP280;62039;50.000;9.064;2023-07-28T08:53:00;99621.69;;;20.06
73734;BMP280;62039;50.000;9.064;2023-07-28T08:55:30;99620.16;;;20.10
73734;BMP280;62039;50.000;9.064;2023-07-28T08:58:13;99626.66;;;20.14
73734;BMP280;62039;50.000;9.064;2023-07-28T09:00:40;99627.28;;;20.21
73734;BMP280;62039;50.000;9.064;2023-07-28T09:03:08;99629.53;;;20.29
73734;BMP280;62039;50.000;9.064;2023-07-28T09:05:35;99627.78;;;20.35
73734;BMP280;62039;50.000;9.064;2023-07-28T09:08:02;99632.59;;;20.38
73734;BMP280;62039;50.000;9.064;2023-07-28T09:10:43;99633.16;;;20.40
73734;BMP280;62039;50.000;9.064;2023-07-28T09:13:11;99636.38;;;20.42
73734;BMP280;62039;50.000;9.064;2023-07-28T09:15:43;99639.09;;;20.47
73734;BMP280;62039;50.000;9.064;2023-07-28T09:18:11;99641.59;;;20.54
73734;BMP280;62039;50.000;9.064;2023-07-28T09:20:40;99635.56;;;20.58
73734;BMP280;62039;50.000;9.064;2023-07-28T09:23:08;99637.75;;;20.61
73734;BMP280;62039;50.000;9.064;2023-07-28T09:25:37;99634.59;;;20.64
73734;BMP280;62039;50.000;9.064;2023-07-28T09:28:06;99636.53;;;20.69
73734;BMP280;62039;50.000;9.064;2023-07-28T09:30:45;99642.75;;;20.74
73734;BMP280;62039;50.000;9.064;2023-07-28T09:33:13;99632.44;;;20.78
73734;BMP280;62039;50.000;9.064;2023-07-28T09:35:49;99641.25;;;20.84
73734;BMP280;62039;50.000;9.064;2023-07-28T09:38:18;99644.25;;;20.87
73734;BMP280;62039;50.000;9.064;2023-07-28T09:40:46;99636.59;;;20.91
73734;BMP280;62039;50.000;9.064;2023-07-28T09:43:15;99641.41;;;20.94
73734;BMP280;62039;50.000;9.064;2023-07-28T09:45:43;99639.63;;;20.99
73734;BMP280;62039;50.000;9.064;2023-07-28T09:48:11;99635.41;;;21.03
73734;BMP280;62039;50.000;9.064;2023-07-28T09:50:40;99625.13;;;21.07
73734;BMP280;62039;50.000;9.064;2023-07-28T09:53:09;99627.84;;;21.12
73734;BMP280;62039;50.000;9.064;2023-07-28T09:55:38;99619.13;;;21.16
73734;BMP280;62039;50.000;9.064;2023-07-28T09:58:09;99617.38;;;21.22
73734;BMP280;62039;50.000;9.064;2023-07-28T10:00:40;99624.81;;;21.25
73734;BMP280;62039;50.000;9.064;2023-07-28T10:03:08;99628.59;;;21.29
73734;BMP280;62039;50.000;9.064;2023-07-28T10:05:35;99626.47;;;21.31
73734;BMP280;62039;50.000;9.064;2023-07-28T10:08:03;99622.31;;;21.35
73734;BMP280;62039;50.000;9.064;2023-07-28T10:10:31;99628.75;;;21.39
73734;BMP280;62039;50.000;9.064;2023-07-28T10:12:59;99633.06;;;21.45
73734;BMP280;62039;50.000;9.064;2023-07-28T10:15:30;99638.19;;;21.52
73734;BMP280;62039;50.000;9.064;2023-07-28T10:18:00;99631.56;;;21.54
73734;BMP280;62039;50.000;9.064;2023-07-28T10:20:33;99631.63;;;21.60
73734;BMP280;62039;50.000;9.064;2023-07-28T10:23:07;99620.56;;;21.68
73734;BMP280;62039;50.000;9.064;2023-07-28T10:25:38;99621.66;;;21.72
73734;BMP280;62039;50.000;9.064;2023-07-28T10:28:06;99621.19;;;21.80
73734;BMP280;62039;50.000;9.064;2023-07-28T13:19:36;99695.28;;;20.27
73734;BMP280;62039;50.000;9.064;2023-07-28T13:22:03;99696.72;;;20.52
73734;BMP280;62039;50.000;9.064;2023-07-28T13:24:30;99697.41;;;20.75
73734;BMP280;62039;50.000;9.064;2023-07-28T13:26:57;99703.81;;;20.96
73734;BMP280;62039;50.000;9.064;2023-07-28T13:29:24;99702.19;;;21.12
73734;BMP280;62039;50.000;9.064;2023-07-28T13:31:56;99697.09;;;21.27
73734;BMP280;62039;50.000;9.064;2023-07-28T13:34:23;99690.41;;;21.41
73734;BMP280;62039;50.000;9.064;2023-07-28T13:36:53;99688.97;;;21.56
73734;BMP280;62039;50.000;9.064;2023-07-28T13:39:20;99686.44;;;21.66
73734;BMP280;62039;50.000;9.064;2023-07-28T13:41:47;99685.44;;;21.72
73734;BMP280;62039;50.000;9.064;2023-07-28T13:44:15;99684.44;;;21.78
73734;BMP280;62039;50.000;9.064;2023-07-28T13:46:42;99677.34;;;21.83
73734;BMP280;62039;50.000;9.064;2023-07-28T13:49:09;99669.72;;;21.92
73734;BMP280;62039;50.000;9.064;2023-07-28T13:51:36;99677.25;;;22.00
73734;BMP280;62039;50.000;9.064;2023-07-28T13:54:10;99673.09;;;22.09
73734;BMP280;62039;50.000;9.064;2023-07-28T13:56:40;99678.47;;;22.14
73734;BMP280;62039;50.000;9.064;2023-07-28T13:59:26;99670.53;;;22.19
73734;BMP280;62039;50.000;9.064;2023-07-28T14:01:53;99686.50;;;22.24
73734;BMP280;62039;50.000;9.064;2023-07-28T14:04:20;99680.72;;;22.27
73734;BMP280;62039;50.000;9.064;2023-07-28T14:06:47;99677.50;;;22.25
73734;BMP280;62039;50.000;9.064;2023-07-28T14:09:17;99673.22;;;22.24
73734;BMP280;62039;50.000;9.064;2023-07-28T14:11:44;99683.84;;;22.24
73734;BMP280;62039;50.000;9.064;2023-07-28T14:14:11;99673.50;;;22.23
73734;BMP280;62039;50.000;9.064;2023-07-28T14:16:38;99673.75;;;22.21
73734;BMP280;62039;50.000;9.064;2023-07-28T14:19:05;99679.06;;;22.21
73734;BMP280;62039;50.000;9.064;2023-07-28T14:21:32;99672.13;;;22.20
73734;BMP280;62039;50.000;9.064;2023-07-28T14:24:01;99675.84;;;22.19
73734;BMP280;62039;50.000;9.064;2023-07-28T14:26:30;99675.84;;;22.19
73734;BMP280;62039;50.000;9.064;2023-07-28T14:28:57;99679.81;;;22.17
73734;BMP280;62039;50.000;9.064;2023-07-28T14:31:24;99678.47;;;22.14
73734;BMP280;62039;50.000;9.064;2023-07-28T14:33:51;99678.47;;;22.14
73734;BMP280;62039;50.000;9.064;2023-07-28T14:36:18;99683.78;;;22.14
73734;BMP280;62039;50.000;9.064;2023-07-28T14:38:45;99683.78;;;22.14
73734;BMP280;62039;50.000;9.064;2023-07-28T14:41:12;99677.41;;;22.15
73734;BMP280;62039;50.000;9.064;2023-07-28T14:43:42;99684.34;;;22.16
73734;BMP280;62039;50.000;9.064;2023-07-28T14:46:08;99679.03;;;22.16
73734;BMP280;62039;50.000;9.064;2023-07-28T14:48:35;99681.69;;;22.16
73734;BMP280;62039;50.000;9.064;2023-07-28T14:51:02;99683.53;;;22.16
73734;BMP280;62039;50.000;9.064;2023-07-28T14:53:34;99682.72;;;22.15
73734;BMP280;62039;50.000;9.064;2023-07-28T14:56:02;99682.16;;;22.13
73734;BMP280;62039;50.000;9.064;2023-07-28T14:58:30;99677.38;;;22.10
73734;BMP280;62039;50.000;9.064;2023-07-28T15:01:00;99681.88;;;22.10
73734;BMP280;62039;50.000;9.064;2023-07-28T15:03:29;99680.81;;;22.11
73734;BMP280;62039;50.000;9.064;2023-07-28T15:05:56;99672.06;;;22.10
73734;BMP280;62039;50.000;9.064;2023-07-28T15:08:23;99683.22;;;22.12
73734;BMP280;62039;50.000;9.064;2023-07-28T15:10:50;99676.84;;;22.13
73734;BMP280;62039;50.000;9.064;2023-07-28T15:13:17;99676.28;;;22.11
73734;BMP280;62039;50.000;9.064;2023-07-28T15:15:44;99675.75;;;22.09
73734;BMP280;62039;50.000;9.064;2023-07-28T15:18:14;99672.53;;;22.07
73734;BMP280;62039;50.000;9.064;2023-07-28T15:20:42;99678.34;;;22.04
73734;BMP280;62039;50.000;9.064;2023-07-28T15:23:09;99679.66;;;22.02
73734;BMP280;62039;50.000;9.064;2023-07-28T15:25:36;99677.75;;;21.97
73734;BMP280;62039;50.000;9.064;2023-07-28T15:28:03;99676.41;;;21.95
73734;BMP280;62039;50.000;9.064;2023-07-28T15:30:31;99679.00;;;21.89
73734;BMP280;62039;50.000;9.064;2023-07-28T15:32:57;99680.28;;;21.87
73734;BMP280;62039;50.000;9.064;2023-07-28T15:35:27;99677.63;;;21.87
73734;BMP280;62039;50.000;9.064;2023-07-28T15:37:54;99676.00;;;21.86
73734;BMP280;62039;50.000;9.064;2023-07-28T15:40:21;99676.00;;;21.86
73734;BMP280;62039;50.000;9.064;2023-07-28T15:42:48;99677.63;;;21.87
73734;BMP280;62039;50.000;9.064;2023-07-28T15:45:15;99680.84;;;21.89
73734;BMP280;62039;50.000;9.064;2023-07-28T15:47:42;99680.84;;;21.89
73734;BMP280;62039;50.000;9.064;2023-07-28T15:50:10;99680.84;;;21.89
73734;BMP280;62039;50.000;9.064;2023-07-28T15:52:39;99685.69;;;21.92
73734;BMP280;62039;50.000;9.064;2023-07-28T15:55:06;99683.22;;;21.90
73734;BMP280;62039;50.000;9.064;2023-07-28T15:57:33;99684.63;;;21.93
73734;BMP280;62039;50.000;9.064;2023-07-28T16:00:00;99684.03;;;21.91
73734;BMP280;62039;50.000;9.064;2023-07-28T16:02:27;99678.19;;;21.89
73734;BMP280;62039;50.000;9.064;2023-07-28T16:04:54;99691.97;;;21.86
73734;BMP280;62039;50.000;9.064;2023-07-28T16:07:21;99683.44;;;21.84
73734;BMP280;62039;50.000;9.064;2023-07-28T16:09:51;99681.28;;;21.81
73734;BMP280;62039;50.000;9.064;2023-07-28T16:12:18;99688.69;;;21.79
73734;BMP280;62039;50.000;9.064;2023-07-28T16:14:45;99677.03;;;21.80
73734;BMP280;62039;50.000;9.064;2023-07-28T16:17:12;99677.03;;;21.80
73734;BMP280;62039;50.000;9.064;2023-07-28T16:19:39;99691.34;;;21.79
73734;BMP280;62039;50.000;9.064;2023-07-28T16:22:06;99692.69;;;21.76
73734;BMP280;62039;50.000;9.064;2023-07-28T16:24:33;99687.84;;;21.73
73734;BMP280;62039;50.000;9.064;2023-07-28T16:27:03;99697.66;;;21.73
73734;BMP280;62039;50.000;9.064;2023-07-28T16:29:30;99689.13;;;21.71
73734;BMP280;62039;50.000;9.064;2023-07-28T16:31:57;99698.19;;;21.70
73734;BMP280;62039;50.000;9.064;2023-07-28T16:34:24;99684.34;;;21.68
73734;BMP280;62039;50.000;9.064;2023-07-28T16:36:51;99694.63;;;21.64
73734;BMP280;62039;50.000;9.064;2023-07-28T16:39:18;99692.72;;;21.60
73734;BMP280;62039;50.000;9.064;2023-07-28T16:41:45;99686.81;;;21.52
73734;BMP280;62039;50.000;9.064;2023-07-28T16:44:15;99688.34;;;21.48
73734;BMP280;62039;50.000;9.064;2023-07-28T16:46:42;99691.50;;;21.45
73734;BMP280;62039;50.000;9.064;2023-07-28T16:49:09;99688.28;;;21.43
73734;BMP280;62039;50.000;9.064;2023-07-28T16:51:36;99691.19;;;21.42
73734;BMP280;62039;50.000;9.064;2023-07-28T16:54:03;99687.19;;;21.39
73734;BMP280;62039;50.000;9.064;2023-07-28T16:56:30;99683.72;;;21.39
73734;BMP280;62039;50.000;9.064;2023-07-28T16:58:57;99682.38;;;21.36
73734;BMP280;62039;50.000;9.064;2023-07-28T17:01:27;99674.66;;;21.35